Wolf Creek Observed Data For Previous 48 Hours

Caption
Day and Hour Reservoir Elevation (behind dam)* Tailwater Elevation (below dam)* Average Hourly Discharge*
5/24/2019 1 AM CDT 722.36 546.86 20
5/24/2019 2 AM CDT 722.36 546.26 20
5/24/2019 3 AM CDT 722.36 545.56 20
5/24/2019 4 AM CDT 722.36 544.46 20
5/24/2019 5 AM CDT 722.36 543.36 20
5/24/2019 6 AM CDT 722.36 543.06 20
5/24/2019 7 AM CDT 722.35 542.85 20
5/24/2019 8 AM CDT 722.35 542.65 20
5/24/2019 9 AM CDT 722.34 542.44 20
5/24/2019 10 AM CDT 722.34 542.24 20
5/24/2019 11 AM CDT 722.34 545.54 3,700
5/24/2019 12 PM CDT 722.33 551.13 11,420
5/24/2019 1 PM CDT 722.32 553.82 15,340
5/24/2019 2 PM CDT 722.30 554.60 15,420
5/24/2019 3 PM CDT 722.29 555.19 15,500
5/24/2019 4 PM CDT 722.28 555.58 15,500
5/24/2019 5 PM CDT 722.28 555.78 15,500
5/24/2019 6 PM CDT 722.26 555.86 15,580
5/24/2019 7 PM CDT 722.24 556.04 15,580
5/24/2019 8 PM CDT 722.22 554.92 11,630
5/24/2019 9 PM CDT 722.21 552.81 7,680
5/24/2019 10 PM CDT 722.20 551.10 3,820
5/24/2019 11 PM CDT 722.19 550.49 3,800
5/25/2019 12 AM CDT 722.18 548.68 20
5/25/2019 1 AM CDT 722.17 546.87 20
5/25/2019 2 AM CDT 722.16 546.26 20
5/25/2019 3 AM CDT 722.16 545.56 20
5/25/2019 4 AM CDT 722.16 544.46 20
5/25/2019 5 AM CDT 722.16 543.36 20
5/25/2019 6 AM CDT 722.16 543.06 20
5/25/2019 7 AM CDT 722.16 542.86 20
5/25/2019 8 AM CDT 722.16 542.56 20
5/25/2019 9 AM CDT 722.16 542.36 20
5/25/2019 10 AM CDT 722.14 542.14 20
5/25/2019 11 AM CDT 722.12 548.12 7,500
5/25/2019 12 PM CDT 722.12 551.92 15,300
5/25/2019 1 PM CDT 722.10 553.60 15,300
5/25/2019 2 PM CDT 722.10 554.00 15,420
5/25/2019 3 PM CDT 722.08 554.58 15,420
5/25/2019 4 PM CDT 722.08 554.68 15,500
5/25/2019 5 PM CDT 722.08 554.78 15,500
5/25/2019 6 PM CDT 722.06 554.86 15,500
5/25/2019 7 PM CDT 722.05 556.15 15,580
5/25/2019 8 PM CDT 722.04 553.64 7,720
5/25/2019 9 PM CDT 722.03 551.13 3,820
5/25/2019 10 PM CDT 722.02 549.93 3,800
5/25/2019 11 PM CDT 722.01 549.21 3,780
5/26/2019 12 AM CDT 722.00 548.80 3,780
5/26/2019 1 AM CDT 721.99 546.49 20
5/26/2019 2 AM CDT 721.98 545.28 20
5/26/2019 3 AM CDT 721.98 544.38 20
5/26/2019 4 AM CDT 721.98 543.68 20
5/26/2019 5 AM CDT 721.98 543.18 20
5/26/2019 6 AM CDT 721.98 542.98 20
5/26/2019 7 AM CDT 721.98 542.58 20
5/26/2019 8 AM CDT 721.98 542.38 20
5/26/2019 9 AM CDT 721.98 542.28 20
5/26/2019 10 AM CDT 721.98 542.18 20
5/26/2019 11 AM CDT 721.98 545.58 3,720
5/26/2019 12 PM CDT 721.97 548.77 7,540
5/26/2019 1 PM CDT 721.96 553.46 15,340
5/26/2019 2 PM CDT 721.95 554.55 15,500
5/26/2019 3 PM CDT 721.94 554.94 15,500
5/26/2019 4 PM CDT 721.93 555.43 15,500
5/26/2019 5 PM CDT 721.92 555.72 15,580
5/26/2019 6 PM CDT 721.91 556.01 15,580

Elevations are in feet above sea level. Discharges are in cubic feet per second and are reported at the end of the hour.